createdAt,value
2022-11-23T00:00:34.252Z,0.1
2022-11-23T00:02:33.678Z,0.1
2022-11-23T00:04:33.499Z,0.1
2022-11-23T00:06:34.191Z,0.1
2022-11-23T00:08:33.314Z,0.1
2022-11-23T00:10:33.323Z,0.1
2022-11-23T00:12:33.283Z,0.1
2022-11-23T00:14:33.200Z,0.1
2022-11-23T00:16:33.104Z,0.1
2022-11-23T00:18:33.325Z,0.1
2022-11-23T00:20:32.864Z,0.1
2022-11-23T00:22:33.478Z,0.1
2022-11-23T00:24:32.720Z,0.1
2022-11-23T00:26:33.122Z,0.1
2022-11-23T00:28:32.920Z,0
2022-11-23T00:30:32.452Z,0
2022-11-23T00:32:32.478Z,0
2022-11-23T00:34:32.297Z,0
2022-11-23T00:36:33.830Z,0
2022-11-23T00:38:32.548Z,0
2022-11-23T00:40:32.083Z,0
2022-11-23T00:42:37.839Z,0
2022-11-23T00:44:31.955Z,0
2022-11-23T00:46:31.907Z,0
2022-11-23T00:48:32.725Z,0
2022-11-23T00:50:31.731Z,0
2022-11-23T00:52:31.587Z,0
2022-11-23T00:54:31.520Z,0
2022-11-23T00:56:33.723Z,0
2022-11-23T00:58:32.343Z,0.1
2022-11-23T01:00:31.364Z,0.1
2022-11-23T01:02:33.539Z,0.1
2022-11-23T01:04:33.253Z,0.1
2022-11-23T01:06:33.657Z,0.1
2022-11-23T01:08:32.256Z,0
2022-11-23T01:10:31.614Z,0
2022-11-23T01:12:31.133Z,0
2022-11-23T01:14:30.772Z,0
2022-11-23T01:16:33.097Z,0
2022-11-23T01:18:30.615Z,0
2022-11-23T01:20:30.690Z,0
2022-11-23T01:22:30.547Z,0
2022-11-23T01:24:30.367Z,0
2022-11-23T01:26:31.642Z,0
2022-11-23T01:28:30.255Z,0
2022-11-23T01:30:30.162Z,0
2022-11-23T01:32:31.025Z,0
2022-11-23T01:34:32.446Z,0
2022-11-23T01:36:32.122Z,0
2022-11-23T01:38:31.257Z,0
2022-11-23T01:40:29.840Z,0
2022-11-23T01:42:48.651Z,0
2022-11-23T01:44:31.449Z,0
2022-11-23T01:46:29.868Z,0
2022-11-23T01:48:33.442Z,0
2022-11-23T01:50:29.908Z,0
2022-11-23T01:52:29.252Z,0
2022-11-23T01:54:35.716Z,0
2022-11-23T01:56:35.421Z,0
2022-11-23T01:58:34.437Z,-0.1
2022-11-23T02:00:28.907Z,-0.1
2022-11-23T02:02:30.483Z,-0.1
2022-11-23T02:04:33.989Z,-0.1
2022-11-23T02:06:34.821Z,-0.1
2022-11-23T02:08:30.068Z,-0.1
2022-11-23T02:10:30.793Z,-0.1
2022-11-23T02:12:28.266Z,-0.1
2022-11-23T02:14:29.046Z,-0.1
2022-11-23T02:16:29.373Z,-0.1
2022-11-23T02:18:31.170Z,-0.1
2022-11-23T02:20:28.253Z,-0.1
2022-11-23T02:22:34.878Z,-0.1
2022-11-23T02:24:33.876Z,-0.1
2022-11-23T02:26:30.092Z,-0.1
2022-11-23T02:28:33.007Z,0
2022-11-23T02:30:28.814Z,0
2022-11-23T02:32:29.693Z,0
2022-11-23T02:34:27.294Z,0
2022-11-23T02:36:38.679Z,0
2022-11-23T02:38:33.470Z,0
2022-11-23T02:40:30.616Z,0
2022-11-23T02:42:32.337Z,0
2022-11-23T02:44:37.138Z,0
2022-11-23T02:46:26.766Z,0
2022-11-23T02:48:26.758Z,0.1
2022-11-23T02:50:26.651Z,0.1
2022-11-23T02:52:26.897Z,0.1
2022-11-23T02:54:26.553Z,0.1
2022-11-23T02:56:26.332Z,0.1
2022-11-23T02:58:26.257Z,0
2022-11-23T03:00:26.287Z,0
2022-11-23T03:02:27.584Z,0
2022-11-23T03:04:27.788Z,0
2022-11-23T03:06:26.141Z,0.1
2022-11-23T03:08:27.717Z,0.1
2022-11-23T03:10:26.925Z,0.1
2022-11-23T03:12:26.519Z,0.1
2022-11-23T03:14:31.683Z,0.1
2022-11-23T03:16:25.756Z,0.1
2022-11-23T03:18:26.127Z,0.1
2022-11-23T03:20:25.335Z,0.1
2022-11-23T03:22:26.096Z,0.1
2022-11-23T03:24:25.495Z,0.1
2022-11-23T03:26:32.631Z,0.1
2022-11-23T03:28:25.320Z,0.1
2022-11-23T03:30:25.065Z,0.1
2022-11-23T03:32:26.698Z,0.1
2022-11-23T03:34:25.638Z,0.1
2022-11-23T03:36:24.868Z,0.1
2022-11-23T03:38:25.168Z,0.2
2022-11-23T03:40:41.377Z,0.2
2022-11-23T03:42:24.717Z,0.2
2022-11-23T03:44:24.529Z,0.2
2022-11-23T03:46:24.481Z,0.2
2022-11-23T03:48:24.569Z,0
2022-11-23T03:50:24.123Z,0
2022-11-23T03:52:24.248Z,0
2022-11-23T03:54:24.372Z,0
2022-11-23T03:56:23.958Z,0
2022-11-23T03:58:24.235Z,0
2022-11-23T04:00:24.105Z,0
2022-11-23T04:02:32.721Z,0
2022-11-23T04:04:31.944Z,0
2022-11-23T04:06:38.383Z,0
2022-11-23T04:08:24.230Z,-0.1
2022-11-23T04:10:34.482Z,-0.1
2022-11-23T04:12:23.452Z,-0.1
2022-11-23T04:14:23.156Z,-0.1
2022-11-23T04:16:23.357Z,-0.1
2022-11-23T04:18:22.895Z,-0.2
2022-11-23T04:20:22.882Z,-0.2
2022-11-23T04:22:22.819Z,-0.2
2022-11-23T04:24:22.657Z,-0.2
2022-11-23T04:26:22.612Z,-0.2
2022-11-23T04:28:22.802Z,-0.3
2022-11-23T04:30:22.389Z,-0.3
2022-11-23T04:32:22.830Z,-0.3
2022-11-23T04:34:23.416Z,-0.3
2022-11-23T04:36:22.224Z,-0.3
2022-11-23T04:38:22.324Z,-0.3
2022-11-23T04:40:31.643Z,-0.3
2022-11-23T04:42:25.923Z,-0.3
2022-11-23T04:44:23.049Z,-0.3
2022-11-23T04:46:22.438Z,-0.3
2022-11-23T04:48:21.685Z,-0.2
2022-11-23T04:50:24.156Z,-0.2
2022-11-23T04:52:21.672Z,-0.2
2022-11-23T04:54:27.876Z,-0.2
2022-11-23T04:56:21.318Z,-0.2
2022-11-23T04:58:24.171Z,-0.2
2022-11-23T05:00:21.269Z,-0.2
2022-11-23T05:02:25.459Z,-0.2
2022-11-23T05:04:21.839Z,-0.3
2022-11-23T05:06:21.049Z,-0.3
2022-11-23T05:08:25.429Z,-0.3
2022-11-23T05:10:20.758Z,-0.3
2022-11-23T05:12:20.213Z,-0.3
2022-11-23T05:14:20.237Z,-0.3
2022-11-23T05:16:20.387Z,-0.3
2022-11-23T05:18:19.989Z,-0.4
2022-11-23T05:20:21.709Z,-0.4
2022-11-23T05:22:20.253Z,-0.4
2022-11-23T05:24:30.761Z,-0.4
2022-11-23T05:26:19.482Z,-0.4
2022-11-23T05:30:20.086Z,-0.4
2022-11-23T05:32:19.247Z,-0.4
2022-11-23T05:34:19.729Z,-0.4
2022-11-23T05:36:19.044Z,-0.4
2022-11-23T05:38:18.744Z,-0.5
2022-11-23T05:40:20.499Z,-0.5
2022-11-23T05:42:19.509Z,-0.5
2022-11-23T05:44:18.557Z,-0.5
2022-11-23T05:46:18.458Z,-0.5
2022-11-23T05:48:24.660Z,-0.4
2022-11-23T05:50:19.427Z,-0.4
2022-11-23T05:52:19.598Z,-0.4
2022-11-23T05:54:28.643Z,-0.4
2022-11-23T05:56:29.368Z,-0.4
2022-11-23T05:58:17.985Z,-0.3
2022-11-23T06:00:23.272Z,-0.4
2022-11-23T06:02:17.799Z,-0.4
2022-11-23T06:04:18.880Z,-0.4
2022-11-23T06:06:17.975Z,-0.4
2022-11-23T06:08:18.734Z,-0.4
2022-11-23T06:10:19.760Z,-0.4
2022-11-23T06:12:18.440Z,-0.6
2022-11-23T06:14:18.674Z,-0.6
2022-11-23T06:16:26.413Z,-0.6
2022-11-23T06:18:21.147Z,-0.5
2022-11-23T06:20:19.386Z,-0.5
2022-11-23T06:22:23.828Z,-0.5
2022-11-23T06:24:16.642Z,-0.5
2022-11-23T06:26:16.453Z,-0.5
2022-11-23T06:28:19.640Z,-0.5
2022-11-23T06:30:16.750Z,-0.5
2022-11-23T06:32:16.885Z,-0.5
2022-11-23T06:34:16.392Z,-0.6
2022-11-23T06:36:19.693Z,-0.6
2022-11-23T06:38:16.100Z,-0.6
2022-11-23T06:40:16.937Z,-0.6
2022-11-23T06:42:37.750Z,-0.5
2022-11-23T06:44:16.596Z,-0.6
2022-11-23T06:46:17.338Z,-0.6
2022-11-23T06:48:19.046Z,-0.7
2022-11-23T06:50:17.332Z,-0.7
2022-11-23T06:52:16.907Z,-0.7
2022-11-23T06:54:15.319Z,-0.7
2022-11-23T06:56:15.399Z,-0.7
2022-11-23T06:58:15.113Z,-0.7
2022-11-23T07:00:16.696Z,-0.7
2022-11-23T07:02:15.008Z,-0.7
2022-11-23T07:04:20.307Z,-0.6
2022-11-23T07:06:15.277Z,-0.6
2022-11-23T07:08:14.942Z,-0.6
2022-11-23T07:10:19.040Z,-0.7
2022-11-23T07:12:15.236Z,-0.7
2022-11-23T07:14:15.960Z,-0.7
2022-11-23T07:16:14.498Z,-0.7
2022-11-23T07:18:19.536Z,-0.7
2022-11-23T07:20:14.938Z,-0.7
2022-11-23T07:22:14.229Z,-0.7
2022-11-23T07:24:14.758Z,-0.7
2022-11-23T07:26:14.071Z,-0.8
2022-11-23T07:28:13.866Z,-0.8
2022-11-23T07:30:14.437Z,-0.7
2022-11-23T07:32:13.524Z,-0.7
2022-11-23T07:34:13.452Z,-0.8
2022-11-23T07:36:15.175Z,-0.8
2022-11-23T07:38:13.262Z,-0.9
2022-11-23T07:40:13.795Z,-0.9
2022-11-23T07:42:31.925Z,-0.9
2022-11-23T07:44:12.935Z,-0.7
2022-11-23T07:46:12.950Z,-0.9
2022-11-23T07:48:12.787Z,-0.8
2022-11-23T07:50:13.089Z,-0.8
2022-11-23T07:52:12.589Z,-0.8
2022-11-23T07:54:12.539Z,-0.8
2022-11-23T07:56:12.793Z,-0.8
2022-11-23T07:58:12.275Z,-1
2022-11-23T08:00:13.212Z,-1
2022-11-23T08:02:14.495Z,-1
2022-11-23T08:04:12.094Z,-1
2022-11-23T08:06:13.714Z,-1
2022-11-23T08:08:11.933Z,-1
2022-11-23T08:10:12.391Z,-1
2022-11-23T08:12:11.762Z,-1
2022-11-23T08:14:11.656Z,-1
2022-11-23T08:16:11.411Z,-1
2022-11-23T08:18:11.365Z,-1
2022-11-23T08:20:12.113Z,-1
2022-11-23T08:22:15.476Z,-1
2022-11-23T08:24:11.486Z,-1
2022-11-23T08:26:13.849Z,-1.1
2022-11-23T08:28:11.535Z,-1.2
2022-11-23T08:30:11.344Z,-0.9
2022-11-23T08:32:11.256Z,-1
2022-11-23T08:34:10.435Z,-1
2022-11-23T08:36:10.518Z,-1
2022-11-23T08:38:10.864Z,-1
2022-11-23T08:40:11.422Z,-1
2022-11-23T08:42:10.044Z,-1
2022-11-23T08:44:10.146Z,-1
2022-11-23T08:46:11.370Z,-1
2022-11-23T08:48:10.077Z,-1.2
2022-11-23T08:50:09.864Z,-1.2
2022-11-23T08:52:09.638Z,-1.2
2022-11-23T08:54:09.894Z,-1.2
2022-11-23T08:56:09.578Z,-1.1
2022-11-23T08:58:13.323Z,-1
2022-11-23T09:00:10.416Z,-1
2022-11-23T09:02:11.728Z,-1.2
2022-11-23T09:04:08.863Z,-1.2
2022-11-23T09:06:09.457Z,-1.2
2022-11-23T09:08:08.721Z,-1.3
2022-11-23T09:10:11.551Z,-1.3
2022-11-23T09:12:08.711Z,-1.3
2022-11-23T09:14:08.491Z,-1.2
2022-11-23T09:16:09.737Z,-1.3
2022-11-23T09:18:08.882Z,-1.2
2022-11-23T09:20:09.232Z,-1.2
2022-11-23T09:22:08.022Z,-1.2
2022-11-23T09:24:10.290Z,-1.4
2022-11-23T09:26:07.761Z,-1.4
2022-11-23T09:28:07.754Z,-1.4
2022-11-23T09:30:09.151Z,-1.2
2022-11-23T09:32:07.530Z,-1.2
2022-11-23T09:34:09.938Z,-1.4
2022-11-23T09:36:07.849Z,-1.4
2022-11-23T09:38:07.289Z,-1.5
2022-11-23T09:40:12.313Z,-1.5
2022-11-23T09:42:27.019Z,-1.5
2022-11-23T09:44:17.556Z,-1.6
2022-11-23T09:46:16.265Z,-1.6
2022-11-23T09:48:22.528Z,-1.6
2022-11-23T09:50:14.465Z,-1.6
2022-11-23T09:52:15.151Z,-1.6
2022-11-23T09:54:19.724Z,-1.6
2022-11-23T09:56:17.894Z,-1.6
2022-11-23T09:58:06.866Z,-1.6
2022-11-23T10:00:15.029Z,-1.6
2022-11-23T10:02:15.883Z,-1.6
2022-11-23T10:04:10.123Z,-1.6
2022-11-23T10:06:16.779Z,-1.6
2022-11-23T10:08:14.866Z,-1.6
2022-11-23T10:10:18.077Z,-1.6
2022-11-23T10:12:21.012Z,-1.6
2022-11-23T10:14:19.662Z,-1.7
2022-11-23T10:16:21.277Z,-1.7
2022-11-23T10:18:18.706Z,-1.7
2022-11-23T10:20:34.264Z,-1.7
2022-11-23T10:22:13.044Z,-1.7
2022-11-23T10:24:15.434Z,-1.7
2022-11-23T10:26:08.358Z,-1.7
2022-11-23T10:28:11.927Z,-1.6
2022-11-23T10:30:11.000Z,-1.6
2022-11-23T10:32:12.982Z,-1.9
2022-11-23T10:34:10.228Z,-1.9
2022-11-23T10:36:04.272Z,-1.7
2022-11-23T10:38:18.107Z,-1.8
2022-11-23T10:40:10.042Z,-1.9
2022-11-23T10:42:17.492Z,-1.9
2022-11-23T10:44:11.725Z,-2
2022-11-23T10:46:27.236Z,-1.9
2022-11-23T10:48:03.411Z,-1.9
2022-11-23T10:50:20.753Z,-2
2022-11-23T10:52:05.736Z,-2
2022-11-23T10:54:05.864Z,-2
2022-11-23T10:56:03.196Z,-2
2022-11-23T10:58:02.689Z,-2.2
2022-11-23T11:00:14.336Z,-2.1
2022-11-23T11:02:14.117Z,-2.1
2022-11-23T11:04:03.210Z,-2.1
2022-11-23T11:06:11.394Z,-2.1
2022-11-23T11:08:11.869Z,-2.3
2022-11-23T11:10:03.196Z,-2.2
2022-11-23T11:12:02.042Z,-2.2
2022-11-23T11:14:05.334Z,-2.2
2022-11-23T11:16:04.444Z,-2.2
2022-11-23T11:18:01.486Z,-2.2
2022-11-23T11:20:28.368Z,-2.2
2022-11-23T11:22:17.212Z,-2.2
2022-11-23T11:24:03.324Z,-2.5
2022-11-23T11:26:06.439Z,-2.5
2022-11-23T11:28:02.711Z,-2.3
2022-11-23T11:30:06.569Z,-2.3
2022-11-23T11:32:05.503Z,-2.3
2022-11-23T11:34:13.053Z,-2.3
2022-11-23T11:36:03.664Z,-2.5
2022-11-23T11:38:07.624Z,-2.4
2022-11-23T11:40:07.946Z,-2.4
2022-11-23T11:42:04.410Z,-2.4
2022-11-23T11:44:06.609Z,-2.4
2022-11-23T11:48:03.874Z,-2.5
2022-11-23T11:50:04.779Z,-2.5
2022-11-23T11:52:06.773Z,-2.7
2022-11-23T11:54:04.913Z,-2.7
2022-11-23T11:56:06.399Z,-2.7
2022-11-23T11:58:03.340Z,-2.8
2022-11-23T12:00:04.936Z,-2.8
2022-11-23T12:02:13.921Z,-2.7
2022-11-23T12:04:05.206Z,-2.7
2022-11-23T12:06:06.042Z,-2.9
2022-11-23T12:08:07.559Z,-2.9
2022-11-23T12:10:05.900Z,-2.9
2022-11-23T12:11:58.871Z,-2.9
2022-11-23T12:14:01.141Z,-2.9
2022-11-23T12:16:09.857Z,-2.9
2022-11-23T12:18:15.146Z,-3
2022-11-23T12:20:07.648Z,-3
2022-11-23T12:22:18.899Z,-3
2022-11-23T12:24:07.057Z,-3
2022-11-23T12:26:12.927Z,-3
2022-11-23T12:28:10.835Z,-2.9
2022-11-23T12:30:12.717Z,-3
2022-11-23T12:32:07.652Z,-3
2022-11-23T12:34:11.821Z,-3
2022-11-23T12:36:20.559Z,-3
2022-11-23T12:38:10.696Z,-3
2022-11-23T12:40:14.531Z,-3
2022-11-23T12:42:04.232Z,-3
2022-11-23T12:44:14.275Z,-3.2
2022-11-23T12:46:10.588Z,-3.1
2022-11-23T12:48:03.669Z,-3
2022-11-23T12:50:04.318Z,-3.2
2022-11-23T12:52:06.788Z,-3.2
2022-11-23T12:54:07.627Z,-3.2
2022-11-23T12:56:05.753Z,-3.2
2022-11-23T12:58:02.260Z,-3.2
2022-11-23T13:00:02.430Z,-3.4
2022-11-23T13:02:00.716Z,-3.4
2022-11-23T13:04:22.044Z,-3.4
2022-11-23T13:06:27.323Z,-3.3
2022-11-23T13:08:09.204Z,-3.3
2022-11-23T13:10:05.840Z,-3.3
2022-11-23T13:12:07.556Z,-3.3
2022-11-23T13:14:08.288Z,-3.3
2022-11-23T13:16:14.708Z,-3.3
2022-11-23T13:18:02.377Z,-3.4
2022-11-23T13:20:10.228Z,-3.4
2022-11-23T13:21:54.110Z,-3.4
2022-11-23T13:23:53.390Z,-3.4
2022-11-23T13:26:16.723Z,-3.4
2022-11-23T13:27:56.896Z,-3.4
2022-11-23T13:29:56.320Z,-3.4
2022-11-23T13:32:22.379Z,-3.4
2022-11-23T13:33:54.849Z,-3.4
2022-11-23T13:35:55.752Z,-3.4
2022-11-23T13:38:21.697Z,-3.3
2022-11-23T13:40:20.035Z,-3.4
2022-11-23T13:41:59.691Z,-3.4
2022-11-23T13:43:51.834Z,-3.4
2022-11-23T13:46:18.990Z,-3.4
2022-11-23T13:48:06.404Z,-3.5
2022-11-23T13:50:06.721Z,-3.5
2022-11-23T13:52:14.847Z,-3.5
2022-11-23T13:53:56.167Z,-3.6
2022-11-23T13:55:52.771Z,-3.6
2022-11-23T13:58:27.714Z,-3.7
2022-11-23T13:59:50.727Z,-3.7
2022-11-23T14:02:23.301Z,-3.7
2022-11-23T14:03:54.173Z,-3.7
2022-11-23T14:05:58.266Z,-3.7
2022-11-23T14:07:50.607Z,-3.5
2022-11-23T14:09:54.169Z,-3.5
2022-11-23T14:12:01.649Z,-3.5
2022-11-23T14:13:56.600Z,-3.5
2022-11-23T14:15:56.927Z,-3.6
2022-11-23T14:18:06.589Z,-3.7
2022-11-23T14:20:13.407Z,-3.7
2022-11-23T14:22:00.949Z,-3.7
2022-11-23T14:24:18.580Z,-3.7
2022-11-23T14:26:03.176Z,-3.6
2022-11-23T14:28:02.096Z,-3.8
2022-11-23T14:30:04.911Z,-3.8
2022-11-23T14:32:03.234Z,-3.8
2022-11-23T14:33:55.002Z,-3.8
2022-11-23T14:35:59.321Z,-3.8
2022-11-23T14:38:03.029Z,-3.7
2022-11-23T14:40:00.328Z,-3.7
2022-11-23T14:41:52.901Z,-3.7
2022-11-23T14:43:48.630Z,-3.9
2022-11-23T14:45:47.881Z,-3.9
2022-11-23T14:47:47.262Z,-3.9
2022-11-23T14:49:49.565Z,-3.9
2022-11-23T14:51:46.765Z,-3.9
2022-11-23T14:53:49.579Z,-3.9
2022-11-23T14:55:48.274Z,-3.9
2022-11-23T14:57:47.642Z,-3.9
2022-11-23T14:59:49.890Z,-3.8
2022-11-23T15:01:50.161Z,-3.8
2022-11-23T15:03:55.716Z,-3.8
2022-11-23T15:05:49.163Z,-3.8
2022-11-23T15:07:51.936Z,-3.9
2022-11-23T15:09:50.338Z,-3.9
2022-11-23T15:11:45.242Z,-3.9
2022-11-23T15:13:47.102Z,-4.1
2022-11-23T15:15:45.976Z,-4.2
2022-11-23T15:17:51.568Z,-4.3
2022-11-23T15:19:53.368Z,-4.3
2022-11-23T15:21:44.755Z,-4.3
2022-11-23T15:23:47.261Z,-4.3
2022-11-23T15:25:50.685Z,-4.3
2022-11-23T15:27:44.352Z,-4.2
2022-11-23T15:29:52.031Z,-4.1
2022-11-23T15:31:55.271Z,-4.1
2022-11-23T15:33:46.401Z,-4.1
2022-11-23T15:35:43.457Z,-4.2
2022-11-23T15:37:45.358Z,-4.2
2022-11-23T15:39:43.334Z,-4.2
2022-11-23T15:41:43.788Z,-4.2
2022-11-23T15:43:51.704Z,-4.3
2022-11-23T15:46:01.125Z,-4.3
2022-11-23T15:47:42.477Z,-4.2
2022-11-23T15:49:42.138Z,-4.2
2022-11-23T15:51:44.940Z,-4.2
2022-11-23T15:53:48.345Z,-4.2
2022-11-23T15:55:42.473Z,-4.2
2022-11-23T15:57:41.828Z,-4.2
2022-11-23T15:59:43.766Z,-4.2
2022-11-23T16:01:42.446Z,-4.2
2022-11-23T16:03:47.320Z,-4.2
2022-11-23T16:05:40.711Z,-4.3
2022-11-23T16:07:56.323Z,-4.5
2022-11-23T16:09:57.642Z,-4.4
2022-11-23T16:11:44.411Z,-4.3
2022-11-23T16:13:40.030Z,-4.2
2022-11-23T16:15:41.028Z,-4.2
2022-11-23T16:17:44.808Z,-4.3
2022-11-23T16:19:45.258Z,-4.3
2022-11-23T16:21:44.078Z,-4.3
2022-11-23T16:23:43.188Z,-4.3
2022-11-23T16:25:39.059Z,-4.3
2022-11-23T16:27:39.319Z,-4.4
2022-11-23T16:29:39.732Z,-4.4
2022-11-23T16:31:39.811Z,-4.4
2022-11-23T16:33:39.406Z,-4.2
2022-11-23T16:35:38.256Z,-4.2
2022-11-23T16:37:38.047Z,-4.3
2022-11-23T16:39:37.877Z,-4.3
2022-11-23T16:41:38.185Z,-4.4
2022-11-23T16:43:38.459Z,-4.4
2022-11-23T16:45:39.100Z,-4.4
2022-11-23T16:47:51.547Z,-4.3
2022-11-23T16:49:37.072Z,-4.2
2022-11-23T16:51:37.283Z,-4.2
2022-11-23T16:54:07.876Z,-4.3
2022-11-23T16:55:40.707Z,-4.3
2022-11-23T16:57:38.532Z,-4.3
2022-11-23T16:59:36.601Z,-4.2
2022-11-23T17:01:37.508Z,-4.2
2022-11-23T17:03:35.856Z,-4.2
2022-11-23T17:05:35.710Z,-4.4
2022-11-23T17:07:35.582Z,-4.4
2022-11-23T17:09:35.814Z,-4.4
2022-11-23T17:11:38.195Z,-4.4
2022-11-23T17:13:35.099Z,-4.4
2022-11-23T17:15:34.849Z,-4.4
2022-11-23T17:17:34.589Z,-4.3
2022-11-23T17:19:34.791Z,-4.3
2022-11-23T17:21:34.305Z,-4.4
2022-11-23T17:23:34.166Z,-4.4
2022-11-23T17:25:35.168Z,-4.4
2022-11-23T17:27:36.862Z,-4.4
2022-11-23T17:29:37.686Z,-4.4
2022-11-23T17:31:33.473Z,-4.4
2022-11-23T17:33:33.235Z,-4.4
2022-11-23T17:35:36.953Z,-4.4
2022-11-23T17:37:33.016Z,-4.4
2022-11-23T17:39:33.353Z,-4.4
2022-11-23T17:41:32.577Z,-4.4
2022-11-23T17:43:32.394Z,-4.4
2022-11-23T17:45:32.881Z,-4.6
2022-11-23T17:47:32.409Z,-4.5
2022-11-23T17:49:32.502Z,-4.4
2022-11-23T17:51:31.619Z,-4.4
2022-11-23T17:53:31.470Z,-4.4
2022-11-23T17:55:31.487Z,-4.4
2022-11-23T17:57:31.135Z,-4.6
2022-11-23T17:59:31.423Z,-4.7
2022-11-23T18:01:30.966Z,-4.7
2022-11-23T18:03:30.663Z,-4.7
2022-11-23T18:05:30.648Z,-4.7
2022-11-23T18:07:31.153Z,-4.7
2022-11-23T18:09:30.145Z,-4.6
2022-11-23T18:11:30.081Z,-4.6
2022-11-23T18:13:30.106Z,-4.7
2022-11-23T18:15:29.655Z,-4.6
2022-11-23T18:17:29.418Z,-4.5
2022-11-23T18:19:29.293Z,-4.5
2022-11-23T18:21:29.075Z,-4.5
2022-11-23T18:23:28.954Z,-4.6
2022-11-23T18:25:28.743Z,-4.6
2022-11-23T18:27:28.748Z,-4.6
2022-11-23T18:29:28.482Z,-4.7
2022-11-23T18:31:28.711Z,-4.6
2022-11-23T18:33:28.174Z,-4.6
2022-11-23T18:35:27.957Z,-4.5
2022-11-23T18:37:28.036Z,-4.6
2022-11-23T18:39:27.849Z,-4.6
2022-11-23T18:41:27.585Z,-4.6
2022-11-23T18:43:27.446Z,-4.6
2022-11-23T18:45:27.228Z,-4.6
2022-11-23T18:47:27.048Z,-4.6
2022-11-23T18:49:26.884Z,-4.6
2022-11-23T18:51:26.508Z,-4.8
2022-11-23T18:53:26.365Z,-4.8
2022-11-23T18:55:26.205Z,-4.7
2022-11-23T18:57:25.980Z,-4.7
2022-11-23T18:59:50.435Z,-4.6
2022-11-23T19:01:25.776Z,-4.6
2022-11-23T19:03:25.439Z,-4.8
2022-11-23T19:05:27.199Z,-4.8
2022-11-23T19:07:27.337Z,-4.7
2022-11-23T19:09:25.079Z,-4.6
2022-11-23T19:11:27.018Z,-4.8
2022-11-23T19:13:24.565Z,-4.8
2022-11-23T19:15:24.694Z,-4.8
2022-11-23T19:17:24.208Z,-4.8
2022-11-23T19:19:24.059Z,-4.8
2022-11-23T19:21:26.137Z,-4.8
2022-11-23T19:23:29.425Z,-4.8
2022-11-23T19:25:23.494Z,-4.8
2022-11-23T19:27:23.332Z,-4.8
2022-11-23T19:29:24.916Z,-4.9
2022-11-23T19:31:24.643Z,-4.9
2022-11-23T19:33:22.816Z,-4.9
2022-11-23T19:35:22.910Z,-4.9
2022-11-23T19:37:22.459Z,-5.1
2022-11-23T19:39:22.273Z,-5.1
2022-11-23T19:41:28.227Z,-5.1
2022-11-23T19:43:21.846Z,-5
2022-11-23T19:45:21.755Z,-5
2022-11-23T19:47:23.067Z,-5
2022-11-23T19:49:21.315Z,-5
2022-11-23T19:51:21.403Z,-5
2022-11-23T19:53:21.001Z,-5
2022-11-23T19:55:20.800Z,-5
2022-11-23T19:57:20.732Z,-5.1
2022-11-23T19:59:20.500Z,-5.1
2022-11-23T20:01:22.052Z,-5.1
2022-11-23T20:03:20.130Z,-5.1
2022-11-23T20:05:19.979Z,-5.1
2022-11-23T20:07:19.893Z,-5
2022-11-23T20:09:19.635Z,-5
2022-11-23T20:11:19.536Z,-5.1
2022-11-23T20:13:19.600Z,-5.1
2022-11-23T20:15:19.031Z,-5.1
2022-11-23T20:17:18.886Z,-5
2022-11-23T20:19:18.777Z,-5
2022-11-23T20:21:20.543Z,-5.2
2022-11-23T20:23:18.369Z,-5.2
2022-11-23T20:25:18.186Z,-5.2
2022-11-23T20:27:18.016Z,-5.2
2022-11-23T20:29:17.827Z,-5.2
2022-11-23T20:31:20.831Z,-5.2
2022-11-23T20:33:17.592Z,-5.2
2022-11-23T20:35:17.281Z,-5
2022-11-23T20:37:17.121Z,-5
2022-11-23T20:39:17.251Z,-5.1
2022-11-23T20:41:19.228Z,-5.1
2022-11-23T20:43:16.576Z,-5.2
2022-11-23T20:45:16.669Z,-5.2
2022-11-23T20:47:16.223Z,-5.2
2022-11-23T20:49:16.636Z,-5.2
2022-11-23T20:51:15.803Z,-5.2
2022-11-23T20:53:15.684Z,-5
2022-11-23T20:55:15.575Z,-5
2022-11-23T20:57:15.280Z,-5.2
2022-11-23T20:59:15.492Z,-5.2
2022-11-23T21:01:17.800Z,-5.1
2022-11-23T21:03:14.780Z,-5.1
2022-11-23T21:05:15.102Z,-5.2
2022-11-23T21:07:14.531Z,-5.2
2022-11-23T21:09:14.328Z,-5.2
2022-11-23T21:11:15.765Z,-5.2
2022-11-23T21:13:14.551Z,-5.2
2022-11-23T21:15:13.719Z,-5.2
2022-11-23T21:17:13.453Z,-5
2022-11-23T21:19:13.548Z,-5
2022-11-23T21:21:13.193Z,-5
2022-11-23T21:23:13.055Z,-4.9
2022-11-23T21:25:12.751Z,-4.9
2022-11-23T21:27:12.841Z,-4.9
2022-11-23T21:29:12.700Z,-5
2022-11-23T21:31:12.195Z,-5
2022-11-23T21:33:11.919Z,-5
2022-11-23T21:35:11.866Z,-5
2022-11-23T21:37:11.998Z,-5
2022-11-23T21:39:12.692Z,-4.9
2022-11-23T21:41:13.595Z,-5
2022-11-23T21:43:11.094Z,-5.1
2022-11-23T21:45:10.991Z,-5.1
2022-11-23T21:47:10.862Z,-5.1
2022-11-23T21:49:10.593Z,-5.1
2022-11-23T21:51:12.359Z,-5
2022-11-23T21:53:10.175Z,-5.1
2022-11-23T21:55:09.988Z,-5.3
2022-11-23T21:57:09.846Z,-5.4
2022-11-23T21:59:10.054Z,-5.4
2022-11-23T22:01:12.995Z,-5.3
2022-11-23T22:03:09.435Z,-5.3
2022-11-23T22:05:09.232Z,-5.5
2022-11-23T22:07:09.104Z,-5.4
2022-11-23T22:09:10.437Z,-5.4
2022-11-23T22:11:10.659Z,-5.4
2022-11-23T22:13:08.601Z,-5.3
2022-11-23T22:15:09.052Z,-5.3
2022-11-23T22:17:08.191Z,-5.3
2022-11-23T22:19:10.219Z,-5.4
2022-11-23T22:21:08.703Z,-5.4
2022-11-23T22:23:07.626Z,-5.4
2022-11-23T22:25:08.398Z,-5.3
2022-11-23T22:27:07.211Z,-5.3
2022-11-23T22:29:07.550Z,-5.3
2022-11-23T22:31:08.550Z,-5.3
2022-11-23T22:33:06.683Z,-5.3
2022-11-23T22:35:07.155Z,-5.4
2022-11-23T22:37:10.525Z,-5.3
2022-11-23T22:39:07.051Z,-5.2
2022-11-23T22:41:07.460Z,-5.2
2022-11-23T22:43:05.752Z,-5.2
2022-11-23T22:45:06.730Z,-5.2
2022-11-23T22:47:05.345Z,-5.3
2022-11-23T22:49:05.490Z,-5.4
2022-11-23T22:51:06.130Z,-5.4
2022-11-23T22:53:04.829Z,-5.3
2022-11-23T22:55:05.600Z,-5.3
2022-11-23T22:57:05.015Z,-5.3
2022-11-23T22:59:04.768Z,-5.4
2022-11-23T23:01:05.408Z,-5.4
2022-11-23T23:03:04.684Z,-5.3
2022-11-23T23:05:04.531Z,-5.3
2022-11-23T23:07:04.004Z,-5.3
2022-11-23T23:09:05.523Z,-5.3
2022-11-23T23:11:04.511Z,-5.4
2022-11-23T23:13:03.049Z,-5.4
2022-11-23T23:15:03.379Z,-5.2
2022-11-23T23:17:02.715Z,-5.2
2022-11-23T23:19:02.812Z,-5.4
2022-11-23T23:21:04.433Z,-5.4
2022-11-23T23:23:02.139Z,-5.2
2022-11-23T23:25:06.471Z,-5.3
2022-11-23T23:27:01.761Z,-5.2
2022-11-23T23:29:01.575Z,-5.2
2022-11-23T23:31:02.663Z,-5.3
2022-11-23T23:33:01.279Z,-5.3
2022-11-23T23:35:01.045Z,-5.3
2022-11-23T23:37:00.905Z,-5.3
2022-11-23T23:39:03.160Z,-5.2
2022-11-23T23:41:00.690Z,-5.2
2022-11-23T23:43:00.389Z,-5.2
2022-11-23T23:45:00.095Z,-5.2
2022-11-23T23:46:59.871Z,-5.2
2022-11-23T23:48:59.820Z,-5.4
2022-11-23T23:51:04.607Z,-5.4
2022-11-23T23:52:59.572Z,-5.4
2022-11-23T23:54:59.185Z,-5.4
2022-11-23T23:56:59.173Z,-5.4
2022-11-23T23:58:58.770Z,-5.4
